sensor_id;sensor_type;location;lat;lon;timestamp;pressure;altitude;pressure_sealevel;temperature;humidity
5877;BME280;2964;42.144;24.730;2023-04-07T00:01:11;143331.28;;;6.96;51.02
5877;BME280;2964;42.144;24.730;2023-04-07T00:03:42;143407.69;;;7.27;49.94
5877;BME280;2964;42.144;24.730;2023-04-07T00:06:19;143353.81;;;7.05;49.55
5877;BME280;2964;42.144;24.730;2023-04-07T00:08:46;143356.31;;;7.06;50.14
5877;BME280;2964;42.144;24.730;2023-04-07T00:11:14;143338.81;;;6.99;48.84
5877;BME280;2964;42.144;24.730;2023-04-07T00:13:40;143322.50;;;6.92;50.61
5877;BME280;2964;42.144;24.730;2023-04-07T00:16:07;143283.69;;;6.76;49.28
5877;BME280;2964;42.144;24.730;2023-04-07T00:18:34;143273.66;;;6.72;50.89
5877;BME280;2964;42.144;24.730;2023-04-07T00:21:01;143327.50;;;6.94;49.77
5877;BME280;2964;42.144;24.730;2023-04-07T00:23:27;143303.72;;;6.85;50.58
5877;BME280;2964;42.144;24.730;2023-04-07T00:25:54;143312.50;;;6.88;49.29
5877;BME280;2964;42.144;24.730;2023-04-07T00:28:22;143276.19;;;6.73;50.25
5877;BME280;2964;42.144;24.730;2023-04-07T00:30:48;143279.91;;;6.75;50.82
5877;BME280;2964;42.144;24.730;2023-04-07T00:33:15;143296.22;;;6.82;49.72
5877;BME280;2964;42.144;24.730;2023-04-07T00:35:42;143244.88;;;6.61;50.65
5877;BME280;2964;42.144;24.730;2023-04-07T00:38:08;143272.44;;;6.72;50.09
5877;BME280;2964;42.144;24.730;2023-04-07T00:40:35;143256.13;;;6.65;51.13
5877;BME280;2964;42.144;24.730;2023-04-07T00:43:02;143206.06;;;6.45;52.15
5877;BME280;2964;42.144;24.730;2023-04-07T00:45:30;143211.06;;;6.47;51.79
5877;BME280;2964;42.144;24.730;2023-04-07T00:47:57;143221.06;;;6.51;51.55
5877;BME280;2964;42.144;24.730;2023-04-07T00:50:24;143253.66;;;6.64;51.90
5877;BME280;2964;42.144;24.730;2023-04-07T00:52:52;143212.31;;;6.47;52.06
5877;BME280;2964;42.144;24.730;2023-04-07T00:55:19;143248.66;;;6.62;51.12
5877;BME280;2964;42.144;24.730;2023-04-07T00:57:45;143272.44;;;6.72;51.68
5877;BME280;2964;42.144;24.730;2023-04-07T01:00:12;143251.13;;;6.63;51.04
5877;BME280;2964;42.144;24.730;2023-04-07T01:02:44;143214.81;;;6.48;51.49
5877;BME280;2964;42.144;24.730;2023-04-07T01:05:15;143229.84;;;6.54;51.43
5877;BME280;2964;42.144;24.730;2023-04-07T01:07:51;143239.88;;;6.59;50.64
5877;BME280;2964;42.144;24.730;2023-04-07T01:10:27;143248.66;;;6.62;50.93
5877;BME280;2964;42.144;24.730;2023-04-07T01:13:03;143223.59;;;6.52;50.31
5877;BME280;2964;42.144;24.730;2023-04-07T01:15:32;143211.06;;;6.47;51.53
5877;BME280;2964;42.144;24.730;2023-04-07T01:18:07;143174.78;;;6.32;50.87
5877;BME280;2964;42.144;24.730;2023-04-07T01:20:36;143146.00;;;6.20;50.84
5877;BME280;2964;42.144;24.730;2023-04-07T01:23:05;143178.53;;;6.33;50.46
5877;BME280;2964;42.144;24.730;2023-04-07T01:25:41;143181.06;;;6.34;50.54
5877;BME280;2964;42.144;24.730;2023-04-07T01:28:29;143208.59;;;6.46;50.09
5877;BME280;2964;42.144;24.730;2023-04-07T01:31:01;143156.00;;;6.24;50.34
5877;BME280;2964;42.144;24.730;2023-04-07T01:33:30;143088.44;;;5.96;50.39
5877;BME280;2964;42.144;24.730;2023-04-07T01:35:58;143123.47;;;6.11;50.66
5877;BME280;2964;42.144;24.730;2023-04-07T01:38:27;143178.53;;;6.33;49.73
5877;BME280;2964;42.144;24.730;2023-04-07T01:40:55;143156.00;;;6.24;50.31
5877;BME280;2964;42.144;24.730;2023-04-07T01:43:23;143141.00;;;6.18;50.97
5877;BME280;2964;42.144;24.730;2023-04-07T01:45:53;143055.84;;;5.83;51.97
5877;BME280;2964;42.144;24.730;2023-04-07T01:48:22;143040.81;;;5.77;51.33
5877;BME280;2964;42.144;24.730;2023-04-07T01:50:49;143052.09;;;5.82;52.40
5877;BME280;2964;42.144;24.730;2023-04-07T01:53:16;143103.44;;;6.03;52.02
5877;BME280;2964;42.144;24.730;2023-04-07T01:55:43;143048.34;;;5.80;52.32
5877;BME280;2964;42.144;24.730;2023-04-07T01:58:10;143069.63;;;5.89;51.59
5877;BME280;2964;42.144;24.730;2023-04-07T02:00:37;143043.34;;;5.78;53.06
5877;BME280;2964;42.144;24.730;2023-04-07T02:03:07;143045.81;;;5.79;52.86
5877;BME280;2964;42.144;24.730;2023-04-07T02:05:37;143072.09;;;5.90;52.64
5877;BME280;2964;42.144;24.730;2023-04-07T02:08:07;143055.84;;;5.83;52.72
5877;BME280;2964;42.144;24.730;2023-04-07T02:10:36;143029.56;;;5.72;53.03
5877;BME280;2964;42.144;24.730;2023-04-07T02:13:06;142970.78;;;5.48;52.31
5877;BME280;2964;42.144;24.730;2023-04-07T02:15:35;143053.34;;;5.82;52.74
5877;BME280;2964;42.144;24.730;2023-04-07T02:18:03;143014.53;;;5.66;51.75
5877;BME280;2964;42.144;24.730;2023-04-07T02:20:32;143015.81;;;5.67;54.06
5877;BME280;2964;42.144;24.730;2023-04-07T02:23:02;142998.31;;;5.59;52.44
5877;BME280;2964;42.144;24.730;2023-04-07T02:25:30;143044.56;;;5.78;52.15
5877;BME280;2964;42.144;24.730;2023-04-07T02:27:59;142973.25;;;5.49;52.57
5877;BME280;2964;42.144;24.730;2023-04-07T02:30:27;143022.06;;;5.69;52.59
5877;BME280;2964;42.144;24.730;2023-04-07T02:32:53;143028.34;;;5.72;52.97
5877;BME280;2964;42.144;24.730;2023-04-07T02:35:20;143012.06;;;5.65;52.52
5877;BME280;2964;42.144;24.730;2023-04-07T02:37:47;143063.34;;;5.86;51.73
5877;BME280;2964;42.144;24.730;2023-04-07T02:40:16;143023.28;;;5.70;51.75
5877;BME280;2964;42.144;24.730;2023-04-07T02:42:42;142988.31;;;5.55;53.70
5877;BME280;2964;42.144;24.730;2023-04-07T02:45:10;142973.25;;;5.49;52.63
5877;BME280;2964;42.144;24.730;2023-04-07T02:47:37;142933.25;;;5.33;54.95
5877;BME280;2964;42.144;24.730;2023-04-07T02:50:05;142944.50;;;5.37;52.80
5877;BME280;2964;42.144;24.730;2023-04-07T02:52:32;142927.00;;;5.30;54.54
5877;BME280;2964;42.144;24.730;2023-04-07T02:54:59;142923.25;;;5.29;55.55
5877;BME280;2964;42.144;24.730;2023-04-07T02:57:27;142923.25;;;5.29;57.27
5877;BME280;2964;42.144;24.730;2023-04-07T02:59:54;142891.97;;;5.16;57.66
5877;BME280;2964;42.144;24.730;2023-04-07T03:02:22;142843.22;;;4.96;56.94
5877;BME280;2964;42.144;24.730;2023-04-07T03:04:50;142860.72;;;5.03;56.61
5877;BME280;2964;42.144;24.730;2023-04-07T03:07:16;142850.72;;;4.99;57.35
5877;BME280;2964;42.144;24.730;2023-04-07T03:09:43;142870.72;;;5.07;56.77
5877;BME280;2964;42.144;24.730;2023-04-07T03:12:10;142885.75;;;5.13;55.48
5877;BME280;2964;42.144;24.730;2023-04-07T03:14:38;142881.97;;;5.12;56.21
5877;BME280;2964;42.144;24.730;2023-04-07T03:17:05;142889.50;;;5.15;57.17
5877;BME280;2964;42.144;24.730;2023-04-07T03:19:31;142893.22;;;5.16;57.00
5877;BME280;2964;42.144;24.730;2023-04-07T03:21:58;142860.72;;;5.03;58.50
5877;BME280;2964;42.144;24.730;2023-04-07T03:24:25;142927.00;;;5.30;56.73
5877;BME280;2964;42.144;24.730;2023-04-07T03:26:51;142877.00;;;5.10;56.59
5877;BME280;2964;42.144;24.730;2023-04-07T03:29:18;142878.22;;;5.10;56.31
5877;BME280;2964;42.144;24.730;2023-04-07T03:31:46;142865.72;;;5.05;56.73
5877;BME280;2964;42.144;24.730;2023-04-07T03:34:13;142865.72;;;5.05;56.57
5877;BME280;2964;42.144;24.730;2023-04-07T03:36:39;142840.72;;;4.95;58.67
5877;BME280;2964;42.144;24.730;2023-04-07T03:39:06;142867.00;;;5.06;57.85
5877;BME280;2964;42.144;24.730;2023-04-07T03:41:33;142873.22;;;5.08;59.70
5877;BME280;2964;42.144;24.730;2023-04-07T03:43:59;142965.78;;;5.46;56.63
5877;BME280;2964;42.144;24.730;2023-04-07T03:46:26;142983.31;;;5.53;56.30
5877;BME280;2964;42.144;24.730;2023-04-07T03:48:54;142975.78;;;5.50;55.27
5877;BME280;2964;42.144;24.730;2023-04-07T03:51:21;143008.28;;;5.64;55.37
5877;BME280;2964;42.144;24.730;2023-04-07T03:53:48;143012.06;;;5.65;54.40
5877;BME280;2964;42.144;24.730;2023-04-07T03:56:15;143052.09;;;5.82;55.14
5877;BME280;2964;42.144;24.730;2023-04-07T03:58:42;143005.81;;;5.63;54.70
5877;BME280;2964;42.144;24.730;2023-04-07T04:01:09;142968.25;;;5.47;54.46
5877;BME280;2964;42.144;24.730;2023-04-07T04:03:36;143040.81;;;5.77;54.34
5877;BME280;2964;42.144;24.730;2023-04-07T04:06:04;142945.75;;;5.38;55.31
5877;BME280;2964;42.144;24.730;2023-04-07T04:08:31;143014.53;;;5.66;55.30
5877;BME280;2964;42.144;24.730;2023-04-07T04:10:58;142988.31;;;5.55;55.17
5877;BME280;2964;42.144;24.730;2023-04-07T04:13:24;142998.31;;;5.59;55.57
5877;BME280;2964;42.144;24.730;2023-04-07T04:15:51;143025.81;;;5.71;54.43
5877;BME280;2964;42.144;24.730;2023-04-07T04:18:18;142938.28;;;5.35;55.43
5877;BME280;2964;42.144;24.730;2023-04-07T04:20:45;143009.53;;;5.64;55.60
5877;BME280;2964;42.144;24.730;2023-04-07T04:23:13;142972.03;;;5.49;57.53
5877;BME280;2964;42.144;24.730;2023-04-07T04:25:40;142953.28;;;5.41;57.70
5877;BME280;2964;42.144;24.730;2023-04-07T04:28:07;143029.56;;;5.72;56.90
5877;BME280;2964;42.144;24.730;2023-04-07T04:30:33;142989.53;;;5.56;56.09
5877;BME280;2964;42.144;24.730;2023-04-07T04:33:00;142993.31;;;5.57;56.88
5877;BME280;2964;42.144;24.730;2023-04-07T04:35:27;143029.56;;;5.72;56.14
5877;BME280;2964;42.144;24.730;2023-04-07T04:37:54;143050.84;;;5.81;56.05
5877;BME280;2964;42.144;24.730;2023-04-07T04:40:22;143146.00;;;6.20;53.65
5877;BME280;2964;42.144;24.730;2023-04-07T04:42:48;143157.25;;;6.25;53.14
5877;BME280;2964;42.144;24.730;2023-04-07T04:45:15;143152.25;;;6.23;53.23
5877;BME280;2964;42.144;24.730;2023-04-07T04:47:42;143141.00;;;6.18;54.92
5877;BME280;2964;42.144;24.730;2023-04-07T04:50:09;143142.25;;;6.18;55.21
5877;BME280;2964;42.144;24.730;2023-04-07T04:52:36;143174.78;;;6.32;55.02
5877;BME280;2964;42.144;24.730;2023-04-07T04:55:04;143224.84;;;6.52;52.96
5877;BME280;2964;42.144;24.730;2023-04-07T04:57:32;143196.06;;;6.41;52.76
5877;BME280;2964;42.144;24.730;2023-04-07T05:00:00;143243.59;;;6.60;52.32
5877;BME280;2964;42.144;24.730;2023-04-07T05:02:27;143203.59;;;6.44;53.14
5877;BME280;2964;42.144;24.730;2023-04-07T05:04:54;143229.84;;;6.54;52.59
5877;BME280;2964;42.144;24.730;2023-04-07T05:07:21;143169.75;;;6.30;55.24
5877;BME280;2964;42.144;24.730;2023-04-07T05:09:47;143217.34;;;6.49;52.74
5877;BME280;2964;42.144;24.730;2023-04-07T05:12:14;143251.13;;;6.63;53.61
5877;BME280;2964;42.144;24.730;2023-04-07T05:14:43;143338.81;;;6.99;50.86
5877;BME280;2964;42.144;24.730;2023-04-07T05:17:09;143279.91;;;6.75;50.82
5877;BME280;2964;42.144;24.730;2023-04-07T05:19:36;143466.56;;;7.51;48.89
5877;BME280;2964;42.144;24.730;2023-04-07T05:22:05;143519.22;;;7.73;47.01
5877;BME280;2964;42.144;24.730;2023-04-07T05:24:32;143514.19;;;7.71;46.78
5877;BME280;2964;42.144;24.730;2023-04-07T05:27:00;143629.47;;;8.18;47.03
5877;BME280;2964;42.144;24.730;2023-04-07T05:29:27;143711.03;;;8.52;45.11
5877;BME280;2964;42.144;24.730;2023-04-07T05:31:55;143669.59;;;8.35;46.73
5877;BME280;2964;42.144;24.730;2023-04-07T05:34:21;143786.28;;;8.82;47.22
5877;BME280;2964;42.144;24.730;2023-04-07T05:36:48;143875.38;;;9.19;45.09
5877;BME280;2964;42.144;24.730;2023-04-07T05:39:15;144003.34;;;9.71;43.82
5877;BME280;2964;42.144;24.730;2023-04-07T05:41:42;143871.59;;;9.17;42.59
5877;BME280;2964;42.144;24.730;2023-04-07T05:44:09;143857.78;;;9.12;43.40
5877;BME280;2964;42.144;24.730;2023-04-07T05:46:35;143918.00;;;9.36;41.43
5877;BME280;2964;42.144;24.730;2023-04-07T05:49:03;143885.38;;;9.23;41.44
5877;BME280;2964;42.144;24.730;2023-04-07T05:51:30;143935.56;;;9.43;42.48
5877;BME280;2964;42.144;24.730;2023-04-07T05:54:00;143975.75;;;9.60;41.05
5877;BME280;2964;42.144;24.730;2023-04-07T05:56:27;143877.84;;;9.20;41.37
5877;BME280;2964;42.144;24.730;2023-04-07T05:58:54;143943.13;;;9.46;41.43
5877;BME280;2964;42.144;24.730;2023-04-07T06:01:21;144000.88;;;9.70;40.75
5877;BME280;2964;42.144;24.730;2023-04-07T06:03:47;144041.00;;;9.86;39.76
5877;BME280;2964;42.144;24.730;2023-04-07T06:06:16;144141.47;;;10.28;41.61
5877;BME280;2964;42.144;24.730;2023-04-07T06:08:42;144113.84;;;10.16;39.05
5877;BME280;2964;42.144;24.730;2023-04-07T06:11:09;144201.78;;;10.52;38.79
5877;BME280;2964;42.144;24.730;2023-04-07T06:13:36;144171.63;;;10.40;40.04
5877;BME280;2964;42.144;24.730;2023-04-07T06:16:03;144314.84;;;10.98;37.72
5877;BME280;2964;42.144;24.730;2023-04-07T06:18:30;144561.28;;;11.99;36.46
5877;BME280;2964;42.144;24.730;2023-04-07T06:20:57;144544.91;;;11.92;35.14
5877;BME280;2964;42.144;24.730;2023-04-07T06:23:25;144515.97;;;11.81;35.28
5877;BME280;2964;42.144;24.730;2023-04-07T06:25:52;144596.47;;;12.13;34.64
5877;BME280;2964;42.144;24.730;2023-04-07T06:28:19;144488.31;;;11.69;36.34
5877;BME280;2964;42.144;24.730;2023-04-07T06:30:46;144655.63;;;12.38;33.86
5877;BME280;2964;42.144;24.730;2023-04-07T06:33:13;144679.50;;;12.47;35.54
5877;BME280;2964;42.144;24.730;2023-04-07T06:35:42;144475.75;;;11.64;34.80
5877;BME280;2964;42.144;24.730;2023-04-07T06:38:09;144599.00;;;12.14;35.60
5877;BME280;2964;42.144;24.730;2023-04-07T06:40:38;144518.47;;;11.82;35.62
5877;BME280;2964;42.144;24.730;2023-04-07T06:43:04;144661.88;;;12.40;34.49
5877;BME280;2964;42.144;24.730;2023-04-07T06:45:31;144669.47;;;12.43;33.97
5877;BME280;2964;42.144;24.730;2023-04-07T06:47:58;144994.19;;;13.76;32.56
5877;BME280;2964;42.144;24.730;2023-04-07T06:50:24;145055.91;;;14.01;32.40
5877;BME280;2964;42.144;24.730;2023-04-07T06:52:51;145029.44;;;13.90;31.21
5877;BME280;2964;42.144;24.730;2023-04-07T06:55:18;144757.50;;;12.79;31.63
5877;BME280;2964;42.144;24.730;2023-04-07T06:57:46;144664.38;;;12.41;32.79
5877;BME280;2964;42.144;24.730;2023-04-07T07:00:13;144877.09;;;13.28;31.91
5877;BME280;2964;42.144;24.730;2023-04-07T07:02:40;145034.47;;;13.92;31.56
5877;BME280;2964;42.144;24.730;2023-04-07T07:05:07;145318.03;;;15.08;29.88
5877;BME280;2964;42.144;24.730;2023-04-07T07:07:34;145569.00;;;16.10;28.95
5877;BME280;2964;42.144;24.730;2023-04-07T07:10:00;145980.56;;;17.77;27.67
5877;BME280;2964;42.144;24.730;2023-04-07T07:12:27;145970.47;;;17.73;26.80
5877;BME280;2964;42.144;24.730;2023-04-07T07:14:55;146311.72;;;19.12;25.01
5877;BME280;2964;42.144;24.730;2023-04-07T07:17:22;146098.09;;;18.25;25.58
5877;BME280;2964;42.144;24.730;2023-04-07T07:19:48;145798.72;;;17.03;25.78
5877;BME280;2964;42.144;24.730;2023-04-07T07:22:15;145895.94;;;17.43;24.61
5877;BME280;2964;42.144;24.730;2023-04-07T07:24:42;146559.69;;;20.12;24.16
5877;BME280;2964;42.144;24.730;2023-04-07T07:27:09;146779.94;;;21.01;23.14
5877;BME280;2964;42.144;24.730;2023-04-07T07:29:35;147124.53;;;22.41;21.82
5877;BME280;2964;42.144;24.730;2023-04-07T07:32:04;147138.47;;;22.47;21.10
5877;BME280;2964;42.144;24.730;2023-04-07T07:34:31;146962.31;;;21.75;20.66
5877;BME280;2964;42.144;24.730;2023-04-07T07:36:58;146766.00;;;20.96;21.61
5877;BME280;2964;42.144;24.730;2023-04-07T07:39:24;146615.34;;;20.35;23.72
5877;BME280;2964;42.144;24.730;2023-04-07T07:41:51;146526.75;;;19.99;23.50
5877;BME280;2964;42.144;24.730;2023-04-07T07:44:18;146245.97;;;18.85;23.17
5877;BME280;2964;42.144;24.730;2023-04-07T07:46:45;146154.94;;;18.48;24.72
5877;BME280;2964;42.144;24.730;2023-04-07T07:49:13;145786.09;;;16.98;25.97
5877;BME280;2964;42.144;24.730;2023-04-07T07:51:40;145854.28;;;17.26;25.89
5877;BME280;2964;42.144;24.730;2023-04-07T07:54:06;145642.16;;;16.39;27.94
5877;BME280;2964;42.144;24.730;2023-04-07T07:56:33;145657.34;;;16.46;28.18
5877;BME280;2964;42.144;24.730;2023-04-07T07:59:00;145888.38;;;17.40;25.75
5877;BME280;2964;42.144;24.730;2023-04-07T08:01:27;145937.63;;;17.60;26.41
5877;BME280;2964;42.144;24.730;2023-04-07T08:03:53;145824.00;;;17.13;26.22
5877;BME280;2964;42.144;24.730;2023-04-07T08:06:21;145601.84;;;16.23;26.74
5877;BME280;2964;42.144;24.730;2023-04-07T08:08:48;145647.25;;;16.42;28.57
5877;BME280;2964;42.144;24.730;2023-04-07T08:11:15;145903.53;;;17.46;26.04
5877;BME280;2964;42.144;24.730;2023-04-07T08:13:42;145836.59;;;17.18;27.38
5877;BME280;2964;42.144;24.730;2023-04-07T08:16:09;146069.06;;;18.13;26.64
5877;BME280;2964;42.144;24.730;2023-04-07T08:18:36;145735.56;;;16.77;26.96
5877;BME280;2964;42.144;24.730;2023-04-07T08:21:03;145712.84;;;16.68;26.77
5877;BME280;2964;42.144;24.730;2023-04-07T08:23:31;146043.75;;;18.03;25.71
5877;BME280;2964;42.144;24.730;2023-04-07T08:25:58;146045.00;;;18.03;25.16
5877;BME280;2964;42.144;24.730;2023-04-07T08:28:25;145902.28;;;17.45;25.14
5877;BME280;2964;42.144;24.730;2023-04-07T08:30:52;146171.38;;;18.55;26.26
5877;BME280;2964;42.144;24.730;2023-04-07T08:33:19;146021.03;;;17.93;26.37
5877;BME280;2964;42.144;24.730;2023-04-07T08:35:45;145822.72;;;17.13;28.09
5877;BME280;2964;42.144;24.730;2023-04-07T08:38:12;146008.38;;;17.88;26.65
5877;BME280;2964;42.144;24.730;2023-04-07T08:40:40;146439.44;;;19.63;25.37
5877;BME280;2964;42.144;24.730;2023-04-07T08:43:09;146534.38;;;20.02;24.59
5877;BME280;2964;42.144;24.730;2023-04-07T08:45:38;145990.66;;;17.81;24.91
5877;BME280;2964;42.144;24.730;2023-04-07T08:48:13;145870.69;;;17.32;25.82
5877;BME280;2964;42.144;24.730;2023-04-07T08:50:43;146037.47;;;18.00;25.95
5877;BME280;2964;42.144;24.730;2023-04-07T08:53:11;146257.38;;;18.89;23.81
5877;BME280;2964;42.144;24.730;2023-04-07T08:55:40;146414.19;;;19.53;23.59
5877;BME280;2964;42.144;24.730;2023-04-07T08:58:08;146555.88;;;20.11;23.76
5877;BME280;2964;42.144;24.730;2023-04-07T09:00:37;146586.22;;;20.23;22.70
5877;BME280;2964;42.144;24.730;2023-04-07T09:03:04;146396.47;;;19.46;24.27
5877;BME280;2964;42.144;24.730;2023-04-07T09:05:31;146330.69;;;19.19;23.93
5877;BME280;2964;42.144;24.730;2023-04-07T09:07:58;146178.97;;;18.58;24.41
5877;BME280;2964;42.144;24.730;2023-04-07T09:10:25;146936.97;;;21.65;23.72
5877;BME280;2964;42.144;24.730;2023-04-07T09:12:53;147180.28;;;22.64;21.00
5877;BME280;2964;42.144;24.730;2023-04-07T09:15:20;147142.28;;;22.48;21.38
5877;BME280;2964;42.144;24.730;2023-04-07T09:17:48;147018.03;;;21.98;20.97
5877;BME280;2964;42.144;24.730;2023-04-07T09:20:14;146772.31;;;20.98;22.13
5877;BME280;2964;42.144;24.730;2023-04-07T09:22:42;146511.59;;;19.93;22.46
5877;BME280;2964;42.144;24.730;2023-04-07T09:25:15;146582.47;;;20.21;23.04
5877;BME280;2964;42.144;24.730;2023-04-07T09:28:00;146540.69;;;20.04;23.78
5877;BME280;2964;42.144;24.730;2023-04-07T09:30:29;146238.41;;;18.82;24.67
5877;BME280;2964;42.144;24.730;2023-04-07T09:32:57;146266.22;;;18.93;25.53
5877;BME280;2964;42.144;24.730;2023-04-07T09:35:24;145950.22;;;17.65;26.41
5877;BME280;2964;42.144;24.730;2023-04-07T09:38:04;146162.53;;;18.51;25.52
5877;BME280;2964;42.144;24.730;2023-04-07T09:40:32;145861.88;;;17.29;26.77
5877;BME280;2964;42.144;24.730;2023-04-07T09:43:00;146335.75;;;19.21;24.40
5877;BME280;2964;42.144;24.730;2023-04-07T09:45:29;146023.56;;;17.94;25.58
5877;BME280;2964;42.144;24.730;2023-04-07T09:47:57;146033.66;;;17.99;26.47
5877;BME280;2964;42.144;24.730;2023-04-07T09:50:30;145884.59;;;17.38;26.42
5877;BME280;2964;42.144;24.730;2023-04-07T09:52:58;146076.59;;;18.16;27.28
5877;BME280;2964;42.144;24.730;2023-04-07T09:55:27;146187.81;;;18.61;28.55
5877;BME280;2964;42.144;24.730;2023-04-07T09:57:54;146091.78;;;18.22;25.40
5877;BME280;2964;42.144;24.730;2023-04-07T10:00:23;145925.00;;;17.54;27.55
5877;BME280;2964;42.144;24.730;2023-04-07T10:02:50;145788.66;;;16.99;27.46
5877;BME280;2964;42.144;24.730;2023-04-07T10:05:17;145729.28;;;16.75;26.96
5877;BME280;2964;42.144;24.730;2023-04-07T10:07:46;145834.09;;;17.17;27.48
5877;BME280;2964;42.144;24.730;2023-04-07T10:10:13;145427.72;;;15.52;29.28
5877;BME280;2964;42.144;24.730;2023-04-07T10:12:40;145591.72;;;16.19;29.87
5877;BME280;2964;42.144;24.730;2023-04-07T10:15:08;145430.25;;;15.53;30.20
5877;BME280;2964;42.144;24.730;2023-04-07T10:17:39;145146.59;;;14.38;31.15
5877;BME280;2964;42.144;24.730;2023-04-07T10:20:09;145160.44;;;14.43;30.82
5877;BME280;2964;42.144;24.730;2023-04-07T10:22:36;145154.19;;;14.41;32.47
5877;BME280;2964;42.144;24.730;2023-04-07T10:25:07;145145.34;;;14.37;31.50
5877;BME280;2964;42.144;24.730;2023-04-07T10:27:39;145189.47;;;14.55;30.69
5877;BME280;2964;42.144;24.730;2023-04-07T10:30:17;145212.19;;;14.64;33.18
5877;BME280;2964;42.144;24.730;2023-04-07T10:32:49;145179.34;;;14.51;30.58
5877;BME280;2964;42.144;24.730;2023-04-07T10:35:17;145064.72;;;14.04;33.39
5877;BME280;2964;42.144;24.730;2023-04-07T10:38:11;145117.63;;;14.26;32.31
5877;BME280;2964;42.144;24.730;2023-04-07T10:40:42;145052.13;;;13.99;31.82
5877;BME280;2964;42.144;24.730;2023-04-07T10:43:09;144897.25;;;13.36;32.25
5877;BME280;2964;42.144;24.730;2023-04-07T10:45:53;144795.22;;;12.94;32.78
5877;BME280;2964;42.144;24.730;2023-04-07T10:48:25;144953.88;;;13.59;33.41
5877;BME280;2964;42.144;24.730;2023-04-07T10:51:14;144868.28;;;13.24;32.81
5877;BME280;2964;42.144;24.730;2023-04-07T10:57:07;144772.59;;;12.85;34.14
5877;BME280;2964;42.144;24.730;2023-04-07T10:59:37;144872.00;;;13.26;34.13
5877;BME280;2964;42.144;24.730;2023-04-07T11:02:29;144814.16;;;13.02;34.52
5877;BME280;2964;42.144;24.730;2023-04-07T11:04:58;144839.28;;;13.12;33.90
5877;BME280;2964;42.144;24.730;2023-04-07T11:07:49;144860.69;;;13.21;33.68
5877;BME280;2964;42.144;24.730;2023-04-07T11:10:16;144821.66;;;13.05;33.71
5877;BME280;2964;42.144;24.730;2023-04-07T11:12:44;144752.47;;;12.77;34.27
5877;BME280;2964;42.144;24.730;2023-04-07T11:15:22;144685.78;;;12.50;34.19
5877;BME280;2964;42.144;24.730;2023-04-07T11:18:05;144714.75;;;12.62;34.76
5877;BME280;2964;42.144;24.730;2023-04-07T11:20:41;144734.84;;;12.70;34.70
5877;BME280;2964;42.144;24.730;2023-04-07T11:23:08;144773.88;;;12.86;35.20
5877;BME280;2964;42.144;24.730;2023-04-07T11:25:35;144776.38;;;12.87;34.27
5877;BME280;2964;42.144;24.730;2023-04-07T11:28:02;144797.78;;;12.96;34.82
5877;BME280;2964;42.144;24.730;2023-04-07T11:30:29;144770.09;;;12.84;34.65
5877;BME280;2964;42.144;24.730;2023-04-07T11:32:56;144729.81;;;12.68;35.23
5877;BME280;2964;42.144;24.730;2023-04-07T11:35:24;144752.47;;;12.77;35.22
5877;BME280;2964;42.144;24.730;2023-04-07T11:37:57;144736.09;;;12.70;35.85
5877;BME280;2964;42.144;24.730;2023-04-07T11:40:31;144817.88;;;13.04;35.14
5877;BME280;2964;42.144;24.730;2023-04-07T11:42:59;144732.38;;;12.69;34.83
5877;BME280;2964;42.144;24.730;2023-04-07T11:45:26;144786.41;;;12.91;34.85
5877;BME280;2964;42.144;24.730;2023-04-07T11:47:52;144811.63;;;13.01;34.93
5877;BME280;2964;42.144;24.730;2023-04-07T11:50:37;144816.63;;;13.03;34.57
5877;BME280;2964;42.144;24.730;2023-04-07T11:53:05;144841.84;;;13.13;34.76
5877;BME280;2964;42.144;24.730;2023-04-07T11:55:32;144772.59;;;12.85;35.08
5877;BME280;2964;42.144;24.730;2023-04-07T11:58:05;144742.41;;;12.73;35.13
5877;BME280;2964;42.144;24.730;2023-04-07T12:00:34;144762.53;;;12.81;34.98
5877;BME280;2964;42.144;24.730;2023-04-07T12:03:08;144767.56;;;12.83;35.17
5877;BME280;2964;42.144;24.730;2023-04-07T12:05:45;144757.50;;;12.79;35.45
5877;BME280;2964;42.144;24.730;2023-04-07T12:08:14;144788.97;;;12.92;35.65
5877;BME280;2964;42.144;24.730;2023-04-07T12:10:41;144805.34;;;12.99;36.09
5877;BME280;2964;42.144;24.730;2023-04-07T12:13:08;144742.41;;;12.73;36.21
5877;BME280;2964;42.144;24.730;2023-04-07T12:15:35;144737.38;;;12.71;36.16
5877;BME280;2964;42.144;24.730;2023-04-07T12:18:02;144744.91;;;12.74;36.14
5877;BME280;2964;42.144;24.730;2023-04-07T12:20:29;144756.25;;;12.79;36.11
5877;BME280;2964;42.144;24.730;2023-04-07T12:22:55;144772.59;;;12.85;35.41
5877;BME280;2964;42.144;24.730;2023-04-07T12:25:24;144646.81;;;12.34;35.51
5877;BME280;2964;42.144;24.730;2023-04-07T12:27:51;144752.47;;;12.77;35.63
5877;BME280;2964;42.144;24.730;2023-04-07T12:30:18;144787.72;;;12.91;36.39
5877;BME280;2964;42.144;24.730;2023-04-07T12:32:45;144810.38;;;13.01;36.52
5877;BME280;2964;42.144;24.730;2023-04-07T12:35:12;144747.44;;;12.75;35.84
5877;BME280;2964;42.144;24.730;2023-04-07T12:37:39;144811.63;;;13.01;36.15
5877;BME280;2964;42.144;24.730;2023-04-07T12:40:06;144835.50;;;13.11;36.07
5877;BME280;2964;42.144;24.730;2023-04-07T12:42:35;144770.09;;;12.84;36.41
5877;BME280;2964;42.144;24.730;2023-04-07T12:45:02;144851.88;;;13.18;36.38
5877;BME280;2964;42.144;24.730;2023-04-07T12:47:28;144839.28;;;13.12;36.02
5877;BME280;2964;42.144;24.730;2023-04-07T12:49:56;144794.00;;;12.94;37.17
5877;BME280;2964;42.144;24.730;2023-04-07T12:52:23;144833.03;;;13.10;37.23
5877;BME280;2964;42.144;24.730;2023-04-07T12:54:50;144831.72;;;13.09;37.62
5877;BME280;2964;42.144;24.730;2023-04-07T12:57:17;144875.78;;;13.27;37.66
5877;BME280;2964;42.144;24.730;2023-04-07T12:59:45;144911.09;;;13.42;37.75
5877;BME280;2964;42.144;24.730;2023-04-07T13:02:12;144906.06;;;13.40;37.68
5877;BME280;2964;42.144;24.730;2023-04-07T13:04:39;144885.91;;;13.31;37.71
5877;BME280;2964;42.144;24.730;2023-04-07T13:07:10;144885.91;;;13.31;38.31
5877;BME280;2964;42.144;24.730;2023-04-07T13:09:37;144921.16;;;13.46;38.29
5877;BME280;2964;42.144;24.730;2023-04-07T13:12:04;144931.22;;;13.50;38.09
5877;BME280;2964;42.144;24.730;2023-04-07T13:14:31;144814.16;;;13.02;38.63